Time;durP1;ratioP1;P1;durP2;ratioP2;P2;SDS_P1;SDS_P2;PMS_P1;PMS_P2;Temp;Humidity;BMP_temperature;BMP_pressure;BME280_temperature;BME280_humidity;BME280_pressure;Samples;Min_cycle;Max_cycle;Signal;HPM_P1;HPM_P2
2023/01/16 00:00:42;;;;;;;;;;;7.10;99.90;;;;;;2022950;29;19931;-72
2023/01/16 00:01:42;;;;;;;;;;;7.20;99.90;;;;;;2023120;29;19912;-72
2023/01/16 00:02:43;;;;;;;;;;;7.20;99.90;;;;;;2022143;29;19919;-72
2023/01/16 00:03:43;;;;;;;;;;;7.10;99.90;;;;;;2022286;29;21569;-72
2023/01/16 00:04:43;;;;;;;;;;;7.10;99.90;;;;;;2023580;29;19911;-72
2023/01/16 00:05:44;;;;;;;;;;;7.10;99.90;;;;;;2022463;29;20360;-72
2023/01/16 00:06:44;;;;;;;;;;;7.20;99.90;;;;;;2024036;29;19920;-72
2023/01/16 00:07:45;;;;;;;;;;;7.20;99.90;;;;;;2024823;29;19919;-72
2023/01/16 00:08:47;;;;;;;;;;;7.20;99.90;;;;;;2022974;29;19911;-72
2023/01/16 00:09:48;;;;;;;;;;;7.20;99.90;;;;;;2012780;29;19920;-72
2023/01/16 00:10:48;;;;;;;;;;;7.10;99.90;;;;;;2020784;29;19967;-72
2023/01/16 00:11:49;;;;;;;;;;;7.10;99.90;;;;;;2023717;29;19911;-72
2023/01/16 00:12:49;;;;;;;;;;;7.20;99.90;;;;;;2025987;29;19922;-72
2023/01/16 00:13:50;;;;;;;;;;;7.10;99.90;;;;;;2023768;29;19922;-72
2023/01/16 00:14:50;;;;;;;;;;;7.10;99.90;;;;;;2023042;29;19926;-72
2023/01/16 00:15:51;;;;;;;;;;;7.20;99.90;;;;;;2024095;29;19919;-72
2023/01/16 00:16:51;;;;;;;;;;;7.20;99.90;;;;;;2024598;29;19919;-72
2023/01/16 00:17:52;;;;;;;;;;;7.10;99.90;;;;;;2022966;29;19916;-72
2023/01/16 00:18:52;;;;;;;;;;;7.10;99.90;;;;;;2023410;29;19923;-72
2023/01/16 00:19:53;;;;;;;;;;;7.10;99.90;;;;;;2029877;29;19930;-72
2023/01/16 00:20:53;;;;;;;;;;;7.20;99.90;;;;;;2032301;29;20401;-72
2023/01/16 00:21:54;;;;;;;;;;;7.20;99.90;;;;;;2023932;29;20289;-72
2023/01/16 00:22:54;;;;;;;;;;;7.20;99.90;;;;;;2026390;29;20391;-72
2023/01/16 00:23:56;;;;;;;;;;;7.20;99.90;;;;;;2032865;29;19963;-72
2023/01/16 00:24:56;;;;;;;;;;;7.20;99.90;;;;;;2031643;29;20382;-72
2023/01/16 00:25:57;;;;;;;;;;;7.20;99.90;;;;;;2031501;29;20295;-72
2023/01/16 00:26:57;;;;;;;;;;;7.20;99.90;;;;;;2031988;29;19927;-72
2023/01/16 00:27:58;;;;;;;;;;;7.20;99.90;;;;;;2023133;29;19915;-72
2023/01/16 00:28:58;;;;;;;;;;;7.20;99.90;;;;;;2029414;29;20072;-72
2023/01/16 00:29:59;;;;;;;;;;;7.10;99.90;;;;;;2030056;29;20094;-72
2023/01/16 00:30:59;;;;;;;;;;;7.10;99.90;;;;;;2024221;29;19911;-72
2023/01/16 00:32:00;;;;;;;;;;;7.10;99.90;;;;;;2024511;29;19963;-72
2023/01/16 00:33:01;;;;;;;;;;;7.10;99.90;;;;;;2022248;29;20019;-72
2023/01/16 00:34:01;;;;;;;;;;;7.20;99.90;;;;;;2023444;29;20380;-72
2023/01/16 00:35:02;;;;;;;;;;;7.20;99.90;;;;;;2024105;29;19924;-71
2023/01/16 00:36:03;;;;;;;;;;;7.10;99.90;;;;;;2023152;29;20390;-72
2023/01/16 00:37:03;;;;;;;;;;;7.20;99.90;;;;;;2023615;29;19915;-72
2023/01/16 00:38:04;;;;;;;;;;;7.20;99.90;;;;;;2022579;29;19919;-72
2023/01/16 00:39:05;;;;;;;;;;;7.20;99.90;;;;;;2025211;29;19915;-72
2023/01/16 00:40:05;;;;;;;;;;;7.20;99.90;;;;;;2023834;29;20746;-72
2023/01/16 00:41:06;;;;;;;;;;;7.20;99.90;;;;;;2024834;29;20265;-72
2023/01/16 00:42:07;;;;;;;;;;;7.20;99.90;;;;;;2024229;29;19959;-72
2023/01/16 00:43:07;;;;;;;;;;;7.20;99.90;;;;;;2023055;29;19911;-72
2023/01/16 00:44:08;;;;;;;;;;;7.20;99.90;;;;;;2023379;29;19919;-72
2023/01/16 00:45:08;;;;;;;;;;;7.20;99.90;;;;;;2022850;29;19920;-72
2023/01/16 00:46:09;;;;;;;;;;;7.20;99.90;;;;;;2023227;29;19923;-72
2023/01/16 00:47:09;;;;;;;;;;;7.10;99.90;;;;;;2022770;29;20044;-72
2023/01/16 00:48:10;;;;;;;;;;;7.10;99.90;;;;;;2024012;29;19915;-72
2023/01/16 00:49:10;;;;;;;;;;;7.10;99.90;;;;;;2022820;29;19916;-72
2023/01/16 00:50:11;;;;;;;;;;;7.20;99.90;;;;;;2021793;29;20327;-72
2023/01/16 00:51:11;;;;;;;;;;;7.10;99.90;;;;;;2022287;29;19919;-72
2023/01/16 00:52:12;;;;;;;;;;;7.20;99.90;;;;;;2023299;29;19938;-72
2023/01/16 00:53:12;;;;;;;;;;;7.20;99.90;;;;;;2023160;29;20449;-72
2023/01/16 00:54:13;;;;;;;;;;;7.10;99.90;;;;;;2022151;29;19967;-72
2023/01/16 00:55:13;;;;;;;;;;;7.10;99.90;;;;;;2024465;29;20107;-72
2023/01/16 00:56:14;;;;;;;;;;;7.10;99.90;;;;;;2023226;29;20356;-72
2023/01/16 00:57:14;;;;;;;;;;;7.10;99.90;;;;;;2023875;29;20272;-72
2023/01/16 00:58:15;;;;;;;;;;;7.10;99.90;;;;;;2022499;29;19919;-72
2023/01/16 00:59:15;;;;;;;;;;;7.10;99.90;;;;;;2023149;29;19918;-72
2023/01/16 01:00:17;;;;;;;;;;;7.10;99.90;;;;;;2024927;29;19919;-72
2023/01/16 01:01:18;;;;;;;;;;;7.10;99.90;;;;;;2021678;29;19949;-72
2023/01/16 01:02:18;;;;;;;;;;;7.10;99.90;;;;;;2022672;29;19946;-72
2023/01/16 01:03:19;;;;;;;;;;;7.10;99.90;;;;;;2022193;29;19915;-72
2023/01/16 01:04:19;;;;;;;;;;;7.10;99.90;;;;;;2022599;29;19915;-72
2023/01/16 01:05:20;;;;;;;;;;;7.10;99.90;;;;;;2022468;29;20034;-72
2023/01/16 01:06:20;;;;;;;;;;;7.10;99.90;;;;;;2023132;29;21683;-72
2023/01/16 01:07:21;;;;;;;;;;;7.10;99.90;;;;;;2025139;29;20332;-72
2023/01/16 01:08:21;;;;;;;;;;;7.10;99.90;;;;;;2022836;29;19923;-72
2023/01/16 01:09:22;;;;;;;;;;;7.00;99.90;;;;;;2023287;29;20009;-72
2023/01/16 01:10:22;;;;;;;;;;;7.00;99.90;;;;;;2022808;29;20063;-72
2023/01/16 01:11:23;;;;;;;;;;;7.00;99.90;;;;;;2022797;29;19950;-72
2023/01/16 01:12:23;;;;;;;;;;;7.00;99.90;;;;;;2022208;29;19926;-72
2023/01/16 01:13:24;;;;;;;;;;;7.00;99.90;;;;;;2021893;29;20308;-72
2023/01/16 01:14:25;;;;;;;;;;;7.00;99.90;;;;;;2022908;29;20363;-72
2023/01/16 01:15:25;;;;;;;;;;;7.00;99.90;;;;;;2022581;29;19911;-72
2023/01/16 01:16:26;;;;;;;;;;;7.00;99.90;;;;;;2023750;29;19959;-72
2023/01/16 01:17:26;;;;;;;;;;;7.00;99.90;;;;;;2022368;29;20379;-72
2023/01/16 01:18:26;;;;;;;;;;;7.00;99.90;;;;;;2022708;29;19967;-72
2023/01/16 01:19:27;;;;;;;;;;;7.00;99.90;;;;;;2022724;29;19966;-72
2023/01/16 01:20:28;;;;;;;;;;;7.00;99.90;;;;;;2022821;29;20280;-72
2023/01/16 01:21:28;;;;;;;;;;;7.00;99.90;;;;;;2018096;29;19915;-71
2023/01/16 01:22:29;;;;;;;;;;;7.00;99.90;;;;;;2019260;29;19915;-71
2023/01/16 01:23:29;;;;;;;;;;;7.00;99.90;;;;;;2023763;29;19911;-71
2023/01/16 01:24:30;;;;;;;;;;;7.00;99.90;;;;;;2022298;29;20104;-72
2023/01/16 01:25:30;;;;;;;;;;;7.00;99.90;;;;;;2030352;29;20010;-71
2023/01/16 01:26:31;;;;;;;;;;;7.00;99.90;;;;;;2030823;29;19915;-71
2023/01/16 01:27:31;;;;;;;;;;;6.90;99.90;;;;;;2022264;29;20359;-72
2023/01/16 01:28:32;;;;;;;;;;;7.00;99.90;;;;;;2022669;29;20272;-72
2023/01/16 01:29:32;;;;;;;;;;;7.00;99.90;;;;;;2023506;29;20004;-72
2023/01/16 01:30:32;;;;;;;;;;;7.00;99.90;;;;;;2023652;29;19918;-72
2023/01/16 01:31:33;;;;;;;;;;;7.00;99.90;;;;;;2023882;29;22295;-72
2023/01/16 01:32:36;;;;;;;;;;;7.00;99.90;;;;;;2024808;29;19924;-72
2023/01/16 01:33:37;;;;;;;;;;;7.00;99.90;;;;;;2023250;29;20328;-72
2023/01/16 01:34:38;;;;;;;;;;;7.00;99.90;;;;;;2022380;29;19919;-72
2023/01/16 01:35:38;;;;;;;;;;;7.00;99.90;;;;;;2022761;29;19947;-72
2023/01/16 01:36:39;;;;;;;;;;;6.90;99.90;;;;;;2021582;29;20759;-72
2023/01/16 01:37:39;;;;;;;;;;;7.00;99.90;;;;;;2021652;29;19916;-72
2023/01/16 01:38:40;;;;;;;;;;;6.90;99.90;;;;;;2022624;29;20272;-72
2023/01/16 01:39:40;;;;;;;;;;;6.90;99.90;;;;;;2020595;29;19911;-72
2023/01/16 01:40:40;;;;;;;;;;;7.00;99.90;;;;;;2022433;29;19919;-72
2023/01/16 01:41:41;;;;;;;;;;;6.90;99.90;;;;;;2023262;29;19912;-72
2023/01/16 01:42:46;;;;;;;;;;;6.90;99.90;;;;;;2022880;29;19919;-72
2023/01/16 01:43:48;;;;;;;;;;;6.90;99.90;;;;;;2022574;29;20403;-72
2023/01/16 01:44:53;;;;;;;;;;;6.90;99.90;;;;;;2022575;29;19916;-72
2023/01/16 01:45:54;;;;;;;;;;;6.90;99.90;;;;;;2023289;29;19912;-72
2023/01/16 01:46:55;;;;;;;;;;;6.80;99.90;;;;;;2022488;29;19915;-72
2023/01/16 01:47:59;;;;;;;;;;;6.80;99.90;;;;;;2022012;29;20332;-72
2023/01/16 01:49:15;;;;;;;;;;;6.90;99.90;;;;;;2022625;29;19920;-72
2023/01/16 01:50:36;;;;;;;;;;;6.80;99.90;;;;;;2028926;29;20558;-72
2023/01/16 01:51:39;;;;;;;;;;;6.80;99.90;;;;;;2021778;29;19919;-72
2023/01/16 01:52:39;;;;;;;;;;;6.80;99.90;;;;;;2025317;29;19946;-72
2023/01/16 01:53:43;;;;;;;;;;;6.80;99.90;;;;;;2023381;29;19919;-72
2023/01/16 01:54:45;;;;;;;;;;;6.90;99.90;;;;;;2023406;29;19920;-72
2023/01/16 01:55:47;;;;;;;;;;;6.90;99.90;;;;;;2022810;29;19920;-72
2023/01/16 01:56:49;;;;;;;;;;;6.80;99.90;;;;;;2022227;29;19958;-71
2023/01/16 01:57:55;;;;;;;;;;;6.80;99.90;;;;;;2023136;29;20022;-71
2023/01/16 01:58:59;;;;;;;;;;;6.80;99.90;;;;;;2022507;29;20645;-71
2023/01/16 02:00:03;;;;;;;;;;;6.80;99.90;;;;;;2023084;29;20002;-72
2023/01/16 02:01:03;;;;;;;;;;;6.80;99.90;;;;;;2023655;29;19911;-72
2023/01/16 02:02:05;;;;;;;;;;;6.80;99.90;;;;;;2021894;29;19987;-72
2023/01/16 02:03:08;;;;;;;;;;;6.80;99.90;;;;;;2021443;29;19927;-72
2023/01/16 02:04:12;;;;;;;;;;;6.80;99.90;;;;;;2022816;29;19930;-72
2023/01/16 02:05:15;;;;;;;;;;;6.80;99.90;;;;;;2022415;29;19919;-72
2023/01/16 02:06:19;;;;;;;;;;;6.80;99.90;;;;;;2022244;29;19919;-72
2023/01/16 02:07:20;;;;;;;;;;;6.80;99.90;;;;;;2023027;29;19966;-72
2023/01/16 02:08:22;;;;;;;;;;;6.80;99.90;;;;;;2023220;29;19990;-72
2023/01/16 02:09:24;;;;;;;;;;;6.70;99.90;;;;;;2022446;29;19912;-72
2023/01/16 02:10:30;;;;;;;;;;;6.70;99.90;;;;;;2022436;29;19927;-72
2023/01/16 02:11:37;;;;;;;;;;;6.70;99.90;;;;;;2021597;29;20026;-72
2023/01/16 02:12:38;;;;;;;;;;;6.70;99.90;;;;;;2022846;29;19925;-72
2023/01/16 02:13:38;;;;;;;;;;;6.70;99.90;;;;;;2019873;29;19912;-73
2023/01/16 02:14:40;;;;;;;;;;;6.70;99.90;;;;;;2022265;29;19915;-72
2023/01/16 02:19:15;;;;;;;;;;;6.70;99.90;;;;;;2022610;29;19919;-72
2023/01/16 02:19:51;;;;;;;;;;;6.70;99.90;;;;;;2025179;29;19986;-72
2023/01/16 02:21:27;;;;;;;;;;;6.60;99.90;;;;;;2022594;29;20522;-72
2023/01/16 02:22:39;;;;;;;;;;;6.70;99.90;;;;;;2023912;29;19934;-72
2023/01/16 02:23:43;;;;;;;;;;;6.70;99.90;;;;;;2031853;29;19910;-72
2023/01/16 02:24:49;;;;;;;;;;;6.60;99.90;;;;;;2032781;29;19945;-72
2023/01/16 02:25:56;;;;;;;;;;;6.60;99.90;;;;;;2024494;29;20364;-72
2023/01/16 02:27:09;;;;;;;;;;;6.60;99.90;;;;;;2025281;29;19911;-72
2023/01/16 02:28:38;;;;;;;;;;;6.60;99.90;;;;;;2024728;29;19911;-72
2023/01/16 02:29:38;;;;;;;;;;;6.60;99.90;;;;;;2025046;29;19907;-72
2023/01/16 02:30:57;;;;;;;;;;;6.60;99.90;;;;;;2025926;29;19918;-72
2023/01/16 02:32:10;;;;;;;;;;;6.60;99.90;;;;;;2026159;29;19950;-72
2023/01/16 02:33:17;;;;;;;;;;;6.60;99.90;;;;;;2024247;29;19911;-72
2023/01/16 02:34:53;;;;;;;;;;;6.60;99.90;;;;;;2024730;29;19912;-72
2023/01/16 02:35:59;;;;;;;;;;;6.60;99.90;;;;;;2001352;29;20411;-72
2023/01/16 02:37:02;;;;;;;;;;;6.50;99.90;;;;;;2001113;29;19951;-72
2023/01/16 02:38:26;;;;;;;;;;;6.50;99.90;;;;;;2005193;29;20003;-72
2023/01/16 02:39:33;;;;;;;;;;;6.50;99.90;;;;;;2025601;29;19908;-72
2023/01/16 02:40:36;;;;;;;;;;;6.50;99.90;;;;;;2025210;29;20007;-72
2023/01/16 02:41:54;;;;;;;;;;;6.50;99.90;;;;;;2023412;29;20429;-72
2023/01/16 02:43:14;;;;;;;;;;;6.50;99.90;;;;;;2022511;29;19922;-72
2023/01/16 02:44:17;;;;;;;;;;;6.50;99.90;;;;;;2026049;29;19981;-72
2023/01/16 02:45:21;;;;;;;;;;;6.50;99.90;;;;;;2023371;29;19911;-72
2023/01/16 02:46:28;;;;;;;;;;;6.50;99.90;;;;;;2025868;29;19915;-72
2023/01/16 02:47:36;;;;;;;;;;;6.50;99.90;;;;;;2022332;29;19907;-72
2023/01/16 02:48:39;;;;;;;;;;;6.40;99.90;;;;;;2023878;29;19911;-72
2023/01/16 02:50:02;;;;;;;;;;;6.40;99.90;;;;;;2027338;29;19908;-72
2023/01/16 02:51:06;;;;;;;;;;;6.40;99.90;;;;;;2020404;29;19937;-72
2023/01/16 02:52:06;;;;;;;;;;;6.40;99.90;;;;;;2024351;29;20431;-72
2023/01/16 02:53:12;;;;;;;;;;;6.40;99.90;;;;;;2026240;29;20362;-72
2023/01/16 02:54:32;;;;;;;;;;;6.40;99.90;;;;;;2025720;29;19915;-72
2023/01/16 02:55:51;;;;;;;;;;;6.40;99.90;;;;;;2027140;29;20855;-72
2023/01/16 02:56:56;;;;;;;;;;;6.40;99.90;;;;;;2026281;29;19923;-72
2023/01/16 02:57:59;;;;;;;;;;;6.40;99.90;;;;;;2029554;29;19907;-72
2023/01/16 02:58:59;;;;;;;;;;;6.40;99.90;;;;;;2025274;29;20371;-72
2023/01/16 03:00:00;;;;;;;;;;;6.30;99.90;;;;;;2034469;29;20820;-72
2023/01/16 03:01:00;;;;;;;;;;;6.30;99.90;;;;;;2034231;29;19917;-72
2023/01/16 03:02:03;;;;;;;;;;;6.30;99.90;;;;;;2027043;29;20660;-72
2023/01/16 03:03:03;;;;;;;;;;;6.30;99.90;;;;;;2025816;29;20006;-72
2023/01/16 03:04:05;;;;;;;;;;;6.30;99.90;;;;;;2026973;29;19911;-72
2023/01/16 03:05:07;;;;;;;;;;;6.40;99.90;;;;;;2024792;29;20005;-72
2023/01/16 03:06:20;;;;;;;;;;;6.30;99.90;;;;;;2027407;29;19981;-72
2023/01/16 03:07:23;;;;;;;;;;;6.30;99.90;;;;;;2026094;29;19915;-72
2023/01/16 03:08:27;;;;;;;;;;;6.30;99.90;;;;;;2028558;29;19998;-72
2023/01/16 03:09:43;;;;;;;;;;;6.30;99.90;;;;;;2026454;29;20002;-72
2023/01/16 03:11:01;;;;;;;;;;;6.30;99.90;;;;;;2024226;29;20375;-72
2023/01/16 03:12:21;;;;;;;;;;;6.40;99.90;;;;;;2026653;29;19912;-72
2023/01/16 03:13:40;;;;;;;;;;;6.40;99.90;;;;;;2025878;29;19919;-71
2023/01/16 03:14:44;;;;;;;;;;;6.40;99.90;;;;;;2027788;29;19942;-71
2023/01/16 03:15:50;;;;;;;;;;;6.40;99.90;;;;;;2027034;29;19939;-71
2023/01/16 03:16:51;;;;;;;;;;;6.40;99.90;;;;;;2025511;29;19949;-71
2023/01/16 03:17:51;;;;;;;;;;;6.40;99.90;;;;;;2026961;29;20020;-71
2023/01/16 03:19:01;;;;;;;;;;;6.40;99.90;;;;;;2026117;29;20350;-71
2023/01/16 03:20:01;;;;;;;;;;;6.40;99.90;;;;;;2026439;29;19958;-71
2023/01/16 03:21:20;;;;;;;;;;;6.40;99.90;;;;;;2025657;29;20407;-71
2023/01/16 03:22:24;;;;;;;;;;;6.40;99.90;;;;;;2025957;29;19911;-71
2023/01/16 03:23:25;;;;;;;;;;;6.40;99.90;;;;;;2024161;29;19954;-71
2023/01/16 03:24:53;;;;;;;;;;;6.40;99.90;;;;;;2027893;29;19911;-71
2023/01/16 03:25:54;;;;;;;;;;;6.40;99.90;;;;;;2026444;29;20005;-71
2023/01/16 03:26:58;;;;;;;;;;;6.40;99.90;;;;;;2027714;29;19907;-71
2023/01/16 03:27:59;;;;;;;;;;;6.40;99.90;;;;;;2025897;29;19918;-71
2023/01/16 03:29:08;;;;;;;;;;;6.40;99.90;;;;;;2025769;29;20826;-71
2023/01/16 03:30:12;;;;;;;;;;;6.40;99.90;;;;;;2029341;29;19959;-71
2023/01/16 03:31:18;;;;;;;;;;;6.50;99.90;;;;;;2027856;29;20501;-71
2023/01/16 03:32:22;;;;;;;;;;;6.50;99.90;;;;;;2027276;29;20434;-71
2023/01/16 03:33:25;;;;;;;;;;;6.50;99.90;;;;;;2019508;29;19994;-71
2023/01/16 03:34:44;;;;;;;;;;;6.50;99.90;;;;;;2030893;29;19914;-71
2023/01/16 03:35:55;;;;;;;;;;;6.50;99.90;;;;;;2024563;29;19911;-71
2023/01/16 03:36:59;;;;;;;;;;;6.50;99.90;;;;;;2026167;29;19943;-71
2023/01/16 03:38:10;;;;;;;;;;;6.50;99.90;;;;;;2024205;29;19914;-71
2023/01/16 03:39:12;;;;;;;;;;;6.50;99.90;;;;;;2026269;29;19966;-71
2023/01/16 03:40:15;;;;;;;;;;;6.50;99.90;;;;;;2026189;29;19916;-71
2023/01/16 03:41:19;;;;;;;;;;;6.50;99.90;;;;;;2026496;29;19915;-71
2023/01/16 03:42:33;;;;;;;;;;;6.50;99.90;;;;;;2027272;29;19911;-71
2023/01/16 03:43:35;;;;;;;;;;;6.50;99.90;;;;;;2024954;29;19915;-71
2023/01/16 03:44:38;;;;;;;;;;;6.50;99.90;;;;;;2026217;29;19907;-71
2023/01/16 03:45:41;;;;;;;;;;;6.60;99.90;;;;;;2024562;29;19907;-71
2023/01/16 03:46:47;;;;;;;;;;;6.50;99.90;;;;;;2027126;29;20010;-71
2023/01/16 03:48:03;;;;;;;;;;;6.60;99.90;;;;;;2025981;29;19950;-71
2023/01/16 03:49:03;;;;;;;;;;;6.60;99.90;;;;;;2024980;29;19911;-71
2023/01/16 03:50:05;;;;;;;;;;;6.60;99.90;;;;;;2025497;29;19915;-71
2023/01/16 03:51:07;;;;;;;;;;;6.60;99.90;;;;;;2026466;29;20364;-71
2023/01/16 03:52:09;;;;;;;;;;;6.60;99.90;;;;;;2025523;29;20744;-71
2023/01/16 03:53:11;;;;;;;;;;;6.60;99.90;;;;;;2027723;29;19915;-71
2023/01/16 03:54:22;;;;;;;;;;;6.60;99.90;;;;;;2025919;29;19911;-71
2023/01/16 03:55:26;;;;;;;;;;;6.50;99.90;;;;;;2025896;29;20011;-71
2023/01/16 03:56:29;;;;;;;;;;;6.50;99.90;;;;;;2026424;29;20328;-71
2023/01/16 03:57:35;;;;;;;;;;;6.50;99.90;;;;;;2026906;29;19907;-71
2023/01/16 03:58:38;;;;;;;;;;;6.50;99.90;;;;;;2024962;29;19931;-71
2023/01/16 03:59:39;;;;;;;;;;;6.50;99.90;;;;;;2023856;29;19911;-71
2023/01/16 04:00:44;;;;;;;;;;;6.50;99.90;;;;;;2024950;29;20356;-71
2023/01/16 04:01:53;;;;;;;;;;;6.50;99.90;;;;;;2026542;29;20326;-71
2023/01/16 04:02:57;;;;;;;;;;;6.50;99.90;;;;;;2025974;29;19912;-71
2023/01/16 04:03:58;;;;;;;;;;;6.50;99.90;;;;;;2026285;29;19962;-71
2023/01/16 04:05:02;;;;;;;;;;;6.50;99.90;;;;;;2033642;29;19930;-71
2023/01/16 04:06:08;;;;;;;;;;;6.50;99.90;;;;;;2033018;29;19926;-71
2023/01/16 04:07:11;;;;;;;;;;;6.50;99.90;;;;;;2026023;29;19911;-71
2023/01/16 04:08:14;;;;;;;;;;;6.50;99.90;;;;;;2026431;29;19915;-71
2023/01/16 04:09:26;;;;;;;;;;;6.50;99.90;;;;;;2028524;29;19914;-71
2023/01/16 04:10:37;;;;;;;;;;;6.50;99.90;;;;;;2024271;29;19912;-71
2023/01/16 04:11:38;;;;;;;;;;;6.50;99.90;;;;;;2025139;29;19911;-71
2023/01/16 04:12:43;;;;;;;;;;;6.40;99.90;;;;;;2024565;29;20002;-71
2023/01/16 04:13:44;;;;;;;;;;;6.50;99.90;;;;;;2023750;29;19957;-71
2023/01/16 04:14:48;;;;;;;;;;;6.50;99.90;;;;;;2024133;29;20037;-71
2023/01/16 04:15:51;;;;;;;;;;;6.40;99.90;;;;;;2025294;29;19907;-71
2023/01/16 04:16:51;;;;;;;;;;;6.50;99.90;;;;;;2025227;29;19915;-71
2023/01/16 04:17:52;;;;;;;;;;;6.40;99.90;;;;;;2025508;29;19946;-71
2023/01/16 04:18:53;;;;;;;;;;;6.40;99.90;;;;;;2027987;29;19919;-71
2023/01/16 04:19:54;;;;;;;;;;;6.40;99.90;;;;;;2027008;29;19911;-71
2023/01/16 04:20:54;;;;;;;;;;;6.40;99.90;;;;;;2028136;29;19963;-71
2023/01/16 04:21:55;;;;;;;;;;;6.40;99.90;;;;;;2025086;29;20331;-71
2023/01/16 04:22:55;;;;;;;;;;;6.40;99.90;;;;;;2032387;29;19958;-71
2023/01/16 04:23:56;;;;;;;;;;;6.40;99.90;;;;;;2034019;29;19997;-71
2023/01/16 04:24:58;;;;;;;;;;;6.40;99.90;;;;;;2026833;29;19911;-71
2023/01/16 04:25:58;;;;;;;;;;;6.40;99.90;;;;;;2024547;29;20003;-71
2023/01/16 04:26:58;;;;;;;;;;;6.40;99.90;;;;;;2028550;29;19918;-71
2023/01/16 04:27:59;;;;;;;;;;;6.40;99.90;;;;;;2026757;29;19919;-71
2023/01/16 04:28:59;;;;;;;;;;;6.40;99.90;;;;;;2023992;29;19911;-71
2023/01/16 04:30:00;;;;;;;;;;;6.40;99.90;;;;;;2024749;29;19938;-71
2023/01/16 04:31:00;;;;;;;;;;;6.40;99.90;;;;;;2026487;29;19927;-71
2023/01/16 04:32:01;;;;;;;;;;;6.40;99.90;;;;;;2026429;29;19914;-71
2023/01/16 04:33:02;;;;;;;;;;;6.40;99.90;;;;;;2031642;29;19911;-71
2023/01/16 04:34:02;;;;;;;;;;;6.40;99.90;;;;;;2033091;29;19914;-71
2023/01/16 04:35:03;;;;;;;;;;;6.40;99.90;;;;;;2027697;29;19907;-71
2023/01/16 04:36:04;;;;;;;;;;;6.40;99.90;;;;;;2024693;29;19959;-71
2023/01/16 04:37:05;;;;;;;;;;;6.40;99.90;;;;;;2026143;29;20029;-71
2023/01/16 04:38:05;;;;;;;;;;;6.30;99.90;;;;;;2025509;29;20006;-71
2023/01/16 04:39:05;;;;;;;;;;;6.40;99.90;;;;;;2025435;29;20295;-71
2023/01/16 04:40:08;;;;;;;;;;;6.40;99.90;;;;;;2026051;29;19911;-71
2023/01/16 04:41:09;;;;;;;;;;;6.40;99.90;;;;;;2026485;29;19911;-71
2023/01/16 04:42:09;;;;;;;;;;;6.40;99.90;;;;;;2026210;29;19962;-71
2023/01/16 04:43:10;;;;;;;;;;;6.30;99.90;;;;;;2025358;29;19908;-71
2023/01/16 04:44:10;;;;;;;;;;;6.30;99.90;;;;;;2023853;29;20044;-71
2023/01/16 04:45:11;;;;;;;;;;;6.40;99.90;;;;;;2027186;29;19911;-71
2023/01/16 04:46:11;;;;;;;;;;;6.40;99.90;;;;;;2024512;29;19951;-71
2023/01/16 04:47:12;;;;;;;;;;;6.30;99.90;;;;;;2025446;29;19930;-71
2023/01/16 04:48:12;;;;;;;;;;;6.40;99.90;;;;;;2024601;29;20001;-71
2023/01/16 04:49:13;;;;;;;;;;;6.40;99.90;;;;;;2024956;29;19951;-71
2023/01/16 04:50:13;;;;;;;;;;;6.40;99.90;;;;;;2026327;29;19911;-71
2023/01/16 04:51:14;;;;;;;;;;;6.40;99.90;;;;;;2026581;29;19911;-71
2023/01/16 04:52:14;;;;;;;;;;;6.40;99.90;;;;;;2025498;29;19921;-71
2023/01/16 04:53:15;;;;;;;;;;;6.30;99.90;;;;;;2027597;29;19911;-71
2023/01/16 04:54:16;;;;;;;;;;;6.30;99.90;;;;;;2026480;29;19907;-71
2023/01/16 04:55:17;;;;;;;;;;;6.30;99.90;;;;;;2025937;29;19911;-71
2023/01/16 04:56:17;;;;;;;;;;;6.30;99.90;;;;;;2026131;29;19954;-71
2023/01/16 04:57:18;;;;;;;;;;;6.30;99.90;;;;;;2027048;29;19918;-71
2023/01/16 04:58:18;;;;;;;;;;;6.30;99.90;;;;;;2024663;29;19958;-71
2023/01/16 04:59:18;;;;;;;;;;;6.30;99.90;;;;;;2027468;29;19915;-71
2023/01/16 05:00:19;;;;;;;;;;;6.30;99.90;;;;;;2026656;29;19910;-71
2023/01/16 05:01:20;;;;;;;;;;;6.30;99.90;;;;;;2026591;29;19918;-71
2023/01/16 05:02:20;;;;;;;;;;;6.30;99.90;;;;;;2025982;29;19911;-71
2023/01/16 05:03:21;;;;;;;;;;;6.30;99.90;;;;;;2027034;29;19911;-71
2023/01/16 05:04:21;;;;;;;;;;;6.30;99.90;;;;;;2026926;29;19981;-71
2023/01/16 05:05:22;;;;;;;;;;;6.30;99.90;;;;;;2025077;29;19907;-71
2023/01/16 05:06:22;;;;;;;;;;;6.30;99.90;;;;;;2027930;29;19915;-71
2023/01/16 05:07:25;;;;;;;;;;;6.20;99.90;;;;;;2026328;29;20390;-71
2023/01/16 05:08:27;;;;;;;;;;;6.20;99.90;;;;;;2025379;29;19962;-71
2023/01/16 05:09:28;;;;;;;;;;;6.20;99.90;;;;;;2023413;29;20003;-71
2023/01/16 05:10:28;;;;;;;;;;;6.20;99.90;;;;;;2025509;29;19915;-71
2023/01/16 05:11:29;;;;;;;;;;;6.20;99.90;;;;;;2024662;29;19911;-71
2023/01/16 05:12:29;;;;;;;;;;;6.20;99.90;;;;;;2025045;29;20264;-71
2023/01/16 05:13:29;;;;;;;;;;;6.20;99.90;;;;;;2024577;29;19923;-71
2023/01/16 05:14:30;;;;;;;;;;;6.20;99.90;;;;;;2023303;29;19950;-71
2023/01/16 05:15:30;;;;;;;;;;;6.20;99.90;;;;;;2023155;29;19927;-71
2023/01/16 05:16:31;;;;;;;;;;;6.20;99.90;;;;;;2024012;29;20495;-71
2023/01/16 05:17:31;;;;;;;;;;;6.20;99.90;;;;;;2026592;29;20300;-71
2023/01/16 05:18:32;;;;;;;;;;;6.20;99.90;;;;;;2024102;29;19970;-71
2023/01/16 05:19:32;;;;;;;;;;;6.20;99.90;;;;;;2024655;29;20403;-71
2023/01/16 05:20:33;;;;;;;;;;;6.20;99.90;;;;;;2024852;29;19911;-71
2023/01/16 05:21:33;;;;;;;;;;;6.20;99.90;;;;;;2025775;29;19912;-71
2023/01/16 05:22:33;;;;;;;;;;;6.20;99.90;;;;;;2026121;29;19915;-71
2023/01/16 05:23:34;;;;;;;;;;;6.20;99.90;;;;;;2026403;29;19916;-71
2023/01/16 05:24:35;;;;;;;;;;;6.20;99.90;;;;;;2025199;29;19907;-71
2023/01/16 05:25:36;;;;;;;;;;;6.20;99.90;;;;;;2024937;29;19917;-71
2023/01/16 05:26:36;;;;;;;;;;;6.10;99.90;;;;;;2025014;29;19918;-71
2023/01/16 05:27:37;;;;;;;;;;;6.10;99.90;;;;;;2024069;29;19919;-71
2023/01/16 05:28:37;;;;;;;;;;;6.10;99.90;;;;;;2025152;29;19942;-71
2023/01/16 05:29:38;;;;;;;;;;;6.10;99.90;;;;;;2033477;29;19926;-71
2023/01/16 05:30:38;;;;;;;;;;;6.10;99.90;;;;;;2033491;29;19998;-71
2023/01/16 05:31:39;;;;;;;;;;;6.10;99.90;;;;;;2025449;29;19954;-71
2023/01/16 05:32:39;;;;;;;;;;;6.10;99.90;;;;;;2026087;29;19912;-71
2023/01/16 05:33:40;;;;;;;;;;;6.10;99.90;;;;;;2024928;29;19919;-71
2023/01/16 05:34:40;;;;;;;;;;;6.10;99.90;;;;;;2024881;29;19931;-71
2023/01/16 05:35:40;;;;;;;;;;;6.10;99.90;;;;;;2024953;29;19915;-71
2023/01/16 05:36:41;;;;;;;;;;;6.10;99.90;;;;;;2025302;29;19915;-71
2023/01/16 05:37:42;;;;;;;;;;;6.10;99.90;;;;;;2026384;29;19954;-71
2023/01/16 05:38:42;;;;;;;;;;;6.20;99.90;;;;;;2026347;29;19912;-71
2023/01/16 05:39:43;;;;;;;;;;;6.10;99.90;;;;;;2024495;29;19912;-71
2023/01/16 05:40:44;;;;;;;;;;;6.10;99.90;;;;;;2024119;29;19998;-71
2023/01/16 05:41:44;;;;;;;;;;;6.10;99.90;;;;;;2023887;29;19914;-70
2023/01/16 05:42:47;;;;;;;;;;;6.10;99.90;;;;;;2024843;29;19911;-71
2023/01/16 05:43:47;;;;;;;;;;;6.10;99.90;;;;;;2023296;29;19954;-71
2023/01/16 05:44:48;;;;;;;;;;;6.10;99.90;;;;;;2021800;29;19919;-71
2023/01/16 05:45:49;;;;;;;;;;;6.10;99.90;;;;;;2023860;29;19915;-71
2023/01/16 05:46:50;;;;;;;;;;;6.10;99.90;;;;;;2024090;29;20360;-71
2023/01/16 05:47:51;;;;;;;;;;;6.10;99.90;;;;;;2023645;29;20253;-71
2023/01/16 05:48:51;;;;;;;;;;;6.10;99.90;;;;;;2025060;29;19965;-71
2023/01/16 05:49:52;;;;;;;;;;;6.10;99.90;;;;;;2024395;29;19912;-71
2023/01/16 05:50:52;;;;;;;;;;;6.10;99.90;;;;;;2024610;29;20342;-71
2023/01/16 05:51:53;;;;;;;;;;;6.10;99.90;;;;;;2026266;29;20386;-71
2023/01/16 05:52:53;;;;;;;;;;;6.10;99.90;;;;;;2024410;29;19922;-71
2023/01/16 05:53:54;;;;;;;;;;;6.10;99.90;;;;;;2024259;29;20347;-71
2023/01/16 05:54:55;;;;;;;;;;;6.10;99.90;;;;;;2025202;29;20386;-71
2023/01/16 05:55:56;;;;;;;;;;;6.10;99.90;;;;;;2023668;29;19915;-71
2023/01/16 05:56:57;;;;;;;;;;;6.10;99.90;;;;;;2024560;29;20423;-71
2023/01/16 05:57:57;;;;;;;;;;;6.10;99.90;;;;;;2024339;29;20368;-70
2023/01/16 05:58:57;;;;;;;;;;;6.10;99.90;;;;;;2024147;29;19915;-70
2023/01/16 05:59:58;;;;;;;;;;;6.10;99.90;;;;;;2023678;29;20384;-70
2023/01/16 06:00:58;;;;;;;;;;;6.10;99.90;;;;;;2024783;29;20010;-71
2023/01/16 06:01:59;;;;;;;;;;;6.10;99.90;;;;;;2024479;29;20032;-71
2023/01/16 06:02:59;;;;;;;;;;;6.10;99.90;;;;;;2022117;29;19915;-71
2023/01/16 06:04:00;;;;;;;;;;;6.10;99.90;;;;;;2023679;29;19919;-71
2023/01/16 06:05:00;;;;;;;;;;;6.10;99.90;;;;;;2024736;29;20009;-71
2023/01/16 06:06:01;;;;;;;;;;;6.10;99.90;;;;;;2027256;29;20379;-71
2023/01/16 06:07:02;;;;;;;;;;;6.10;99.90;;;;;;2026889;29;20397;-71
2023/01/16 06:08:02;;;;;;;;;;;6.10;99.90;;;;;;2026323;29;20360;-71
2023/01/16 06:09:03;;;;;;;;;;;6.10;99.90;;;;;;2024540;29;20055;-71
2023/01/16 06:10:04;;;;;;;;;;;6.10;99.90;;;;;;2022939;29;19926;-71
2023/01/16 06:11:04;;;;;;;;;;;6.10;99.90;;;;;;2023697;29;19911;-71
2023/01/16 06:12:07;;;;;;;;;;;6.10;99.90;;;;;;2022636;29;19915;-71
2023/01/16 06:13:07;;;;;;;;;;;6.10;99.90;;;;;;2023125;29;19916;-71
2023/01/16 06:14:08;;;;;;;;;;;6.10;99.90;;;;;;2022891;29;19918;-71
2023/01/16 06:15:09;;;;;;;;;;;6.10;99.90;;;;;;2023986;29;19965;-71